sensor_id;sensor_type;location;lat;lon;timestamp;temperature;humidity
12839;DHT22;6486;51.034;5.262;2023-02-07T00:01:55;4.20;77.80
12839;DHT22;6486;51.034;5.262;2023-02-07T00:04:20;4.20;77.90
12839;DHT22;6486;51.034;5.262;2023-02-07T00:06:46;4.10;77.90
12839;DHT22;6486;51.034;5.262;2023-02-07T00:09:11;4.10;78.00
12839;DHT22;6486;51.034;5.262;2023-02-07T00:11:38;4.10;78.10
12839;DHT22;6486;51.034;5.262;2023-02-07T00:14:07;4.10;78.10
12839;DHT22;6486;51.034;5.262;2023-02-07T00:16:32;4.10;78.10
12839;DHT22;6486;51.034;5.262;2023-02-07T00:18:58;4.00;78.50
12839;DHT22;6486;51.034;5.262;2023-02-07T00:21:25;4.00;78.00
12839;DHT22;6486;51.034;5.262;2023-02-07T00:23:52;3.90;78.10
12839;DHT22;6486;51.034;5.262;2023-02-07T00:26:19;3.90;78.00
12839;DHT22;6486;51.034;5.262;2023-02-07T00:28:46;3.90;78.10
12839;DHT22;6486;51.034;5.262;2023-02-07T00:31:20;3.90;78.10
12839;DHT22;6486;51.034;5.262;2023-02-07T00:33:47;3.90;78.20
12839;DHT22;6486;51.034;5.262;2023-02-07T00:36:18;3.90;78.20
12839;DHT22;6486;51.034;5.262;2023-02-07T00:38:44;3.90;78.20
12839;DHT22;6486;51.034;5.262;2023-02-07T00:41:11;3.90;78.20
12839;DHT22;6486;51.034;5.262;2023-02-07T00:43:42;3.90;78.20
12839;DHT22;6486;51.034;5.262;2023-02-07T00:46:08;3.90;78.20
12839;DHT22;6486;51.034;5.262;2023-02-07T00:48:34;3.90;78.20
12839;DHT22;6486;51.034;5.262;2023-02-07T00:51:00;3.90;78.20
12839;DHT22;6486;51.034;5.262;2023-02-07T00:53:27;3.80;78.20
12839;DHT22;6486;51.034;5.262;2023-02-07T00:55:53;3.80;78.10
12839;DHT22;6486;51.034;5.262;2023-02-07T00:58:18;3.80;78.00
12839;DHT22;6486;51.034;5.262;2023-02-07T01:00:45;3.80;78.00
12839;DHT22;6486;51.034;5.262;2023-02-07T01:03:10;3.70;77.90
12839;DHT22;6486;51.034;5.262;2023-02-07T01:05:36;3.70;77.80
12839;DHT22;6486;51.034;5.262;2023-02-07T01:08:01;3.60;77.60
12839;DHT22;6486;51.034;5.262;2023-02-07T01:10:27;3.60;77.70
12839;DHT22;6486;51.034;5.262;2023-02-07T01:12:53;3.50;77.60
12839;DHT22;6486;51.034;5.262;2023-02-07T01:15:19;3.50;77.50
12839;DHT22;6486;51.034;5.262;2023-02-07T01:17:44;3.50;77.70
12839;DHT22;6486;51.034;5.262;2023-02-07T01:20:10;3.40;77.60
12839;DHT22;6486;51.034;5.262;2023-02-07T01:22:38;3.40;77.50
12839;DHT22;6486;51.034;5.262;2023-02-07T01:25:04;3.30;77.50
12839;DHT22;6486;51.034;5.262;2023-02-07T01:27:31;3.30;77.60
12839;DHT22;6486;51.034;5.262;2023-02-07T01:29:57;3.30;77.70
12839;DHT22;6486;51.034;5.262;2023-02-07T01:32:23;3.30;77.80
12839;DHT22;6486;51.034;5.262;2023-02-07T01:34:49;3.20;77.70
12839;DHT22;6486;51.034;5.262;2023-02-07T01:37:14;3.20;77.70
12839;DHT22;6486;51.034;5.262;2023-02-07T01:39:40;3.20;77.70
12839;DHT22;6486;51.034;5.262;2023-02-07T01:42:06;3.20;77.80
12839;DHT22;6486;51.034;5.262;2023-02-07T01:46:57;3.10;77.60
12839;DHT22;6486;51.034;5.262;2023-02-07T01:49:28;3.10;77.60
12839;DHT22;6486;51.034;5.262;2023-02-07T01:52:04;3.10;77.60
12839;DHT22;6486;51.034;5.262;2023-02-07T01:54:33;3.10;77.60
12839;DHT22;6486;51.034;5.262;2023-02-07T01:57:05;3.10;77.60
12839;DHT22;6486;51.034;5.262;2023-02-07T01:59:33;3.10;77.60
12839;DHT22;6486;51.034;5.262;2023-02-07T02:02:02;3.10;77.60
12839;DHT22;6486;51.034;5.262;2023-02-07T02:04:28;3.00;77.50
12839;DHT22;6486;51.034;5.262;2023-02-07T02:06:55;3.00;77.50
12839;DHT22;6486;51.034;5.262;2023-02-07T02:09:21;3.00;77.50
12839;DHT22;6486;51.034;5.262;2023-02-07T02:14:49;3.00;77.50
12839;DHT22;6486;51.034;5.262;2023-02-07T02:20:07;2.90;77.50
12839;DHT22;6486;51.034;5.262;2023-02-07T02:23:08;2.90;77.50
12839;DHT22;6486;51.034;5.262;2023-02-07T02:31:26;2.80;77.10
12839;DHT22;6486;51.034;5.262;2023-02-07T02:39:34;2.70;77.40
12839;DHT22;6486;51.034;5.262;2023-02-07T02:42:10;2.70;77.50
12839;DHT22;6486;51.034;5.262;2023-02-07T02:44:44;2.70;78.00
12839;DHT22;6486;51.034;5.262;2023-02-07T02:47:11;2.60;77.40
12839;DHT22;6486;51.034;5.262;2023-02-07T02:49:38;2.60;77.50
12839;DHT22;6486;51.034;5.262;2023-02-07T02:52:05;2.60;77.50
12839;DHT22;6486;51.034;5.262;2023-02-07T02:54:34;2.60;77.50
12839;DHT22;6486;51.034;5.262;2023-02-07T03:02:42;2.50;77.40
12839;DHT22;6486;51.034;5.262;2023-02-07T03:11:20;2.50;77.50
12839;DHT22;6486;51.034;5.262;2023-02-07T03:13:59;2.50;77.60
12839;DHT22;6486;51.034;5.262;2023-02-07T03:19:07;2.40;77.60
12839;DHT22;6486;51.034;5.262;2023-02-07T03:22:01;2.50;77.70
12839;DHT22;6486;51.034;5.262;2023-02-07T03:24:36;2.50;77.70
12839;DHT22;6486;51.034;5.262;2023-02-07T03:27:05;2.50;77.50
12839;DHT22;6486;51.034;5.262;2023-02-07T03:29:34;2.50;77.50
12839;DHT22;6486;51.034;5.262;2023-02-07T03:32:03;2.40;77.30
12839;DHT22;6486;51.034;5.262;2023-02-07T03:34:35;2.50;78.00
12839;DHT22;6486;51.034;5.262;2023-02-07T03:37:11;2.40;77.30
12839;DHT22;6486;51.034;5.262;2023-02-07T03:39:38;2.40;77.30
12839;DHT22;6486;51.034;5.262;2023-02-07T03:42:08;2.40;77.30
12839;DHT22;6486;51.034;5.262;2023-02-07T03:44:37;2.30;77.10
12839;DHT22;6486;51.034;5.262;2023-02-07T03:47:04;2.30;77.10
12839;DHT22;6486;51.034;5.262;2023-02-07T03:49:30;2.30;77.10
12839;DHT22;6486;51.034;5.262;2023-02-07T03:51:56;2.30;77.20
12839;DHT22;6486;51.034;5.262;2023-02-07T03:54:21;2.20;77.20
12839;DHT22;6486;51.034;5.262;2023-02-07T03:56:47;2.20;77.10
12839;DHT22;6486;51.034;5.262;2023-02-07T03:59:12;2.20;77.80
12839;DHT22;6486;51.034;5.262;2023-02-07T04:01:38;2.20;77.10
12839;DHT22;6486;51.034;5.262;2023-02-07T04:04:08;2.20;77.10
12839;DHT22;6486;51.034;5.262;2023-02-07T04:06:33;2.20;77.00
12839;DHT22;6486;51.034;5.262;2023-02-07T04:08:59;2.10;77.00
12839;DHT22;6486;51.034;5.262;2023-02-07T04:11:25;2.10;77.10
12839;DHT22;6486;51.034;5.262;2023-02-07T04:13:50;2.10;77.10
12839;DHT22;6486;51.034;5.262;2023-02-07T04:16:16;2.10;77.20
12839;DHT22;6486;51.034;5.262;2023-02-07T04:18:41;2.10;77.20
12839;DHT22;6486;51.034;5.262;2023-02-07T04:21:07;2.10;77.20
12839;DHT22;6486;51.034;5.262;2023-02-07T04:23:34;2.10;77.20
12839;DHT22;6486;51.034;5.262;2023-02-07T04:26:00;2.10;77.20
12839;DHT22;6486;51.034;5.262;2023-02-07T04:28:26;2.10;77.20
12839;DHT22;6486;51.034;5.262;2023-02-07T04:30:52;2.10;77.20
12839;DHT22;6486;51.034;5.262;2023-02-07T04:33:19;2.10;77.20
12839;DHT22;6486;51.034;5.262;2023-02-07T04:35:55;2.10;77.20
12839;DHT22;6486;51.034;5.262;2023-02-07T04:38:22;2.10;77.20
12839;DHT22;6486;51.034;5.262;2023-02-07T04:40:47;2.10;77.30
12839;DHT22;6486;51.034;5.262;2023-02-07T04:43:13;2.10;77.20
12839;DHT22;6486;51.034;5.262;2023-02-07T04:45:38;2.00;77.00
12839;DHT22;6486;51.034;5.262;2023-02-07T04:48:04;2.00;77.00
12839;DHT22;6486;51.034;5.262;2023-02-07T04:50:30;2.00;77.00
12839;DHT22;6486;51.034;5.262;2023-02-07T04:52:56;2.00;77.00
12839;DHT22;6486;51.034;5.262;2023-02-07T04:55:21;2.00;77.00
12839;DHT22;6486;51.034;5.262;2023-02-07T04:57:47;2.00;77.70
12839;DHT22;6486;51.034;5.262;2023-02-07T05:00:13;2.00;77.00
12839;DHT22;6486;51.034;5.262;2023-02-07T05:02:39;2.00;77.00
12839;DHT22;6486;51.034;5.262;2023-02-07T05:05:05;2.00;77.00
12839;DHT22;6486;51.034;5.262;2023-02-07T05:07:31;1.90;77.00
12839;DHT22;6486;51.034;5.262;2023-02-07T05:09:57;1.90;77.00
12839;DHT22;6486;51.034;5.262;2023-02-07T05:12:22;1.90;76.90
12839;DHT22;6486;51.034;5.262;2023-02-07T05:14:48;1.90;76.80
12839;DHT22;6486;51.034;5.262;2023-02-07T05:17:13;1.90;76.70
12839;DHT22;6486;51.034;5.262;2023-02-07T05:19:39;1.90;76.80
12839;DHT22;6486;51.034;5.262;2023-02-07T05:22:05;1.90;76.80
12839;DHT22;6486;51.034;5.262;2023-02-07T05:24:30;1.80;76.70
12839;DHT22;6486;51.034;5.262;2023-02-07T05:26:56;1.80;76.70
12839;DHT22;6486;51.034;5.262;2023-02-07T05:29:22;1.80;76.70
12839;DHT22;6486;51.034;5.262;2023-02-07T05:31:47;1.80;76.70
12839;DHT22;6486;51.034;5.262;2023-02-07T05:34:32;1.80;76.60
12839;DHT22;6486;51.034;5.262;2023-02-07T05:36:57;1.80;76.40
12839;DHT22;6486;51.034;5.262;2023-02-07T05:39:23;1.70;76.30
12839;DHT22;6486;51.034;5.262;2023-02-07T05:41:48;1.70;76.40
12839;DHT22;6486;51.034;5.262;2023-02-07T05:44:14;1.70;76.50
12839;DHT22;6486;51.034;5.262;2023-02-07T05:46:40;1.70;76.60
12839;DHT22;6486;51.034;5.262;2023-02-07T05:49:05;1.60;76.50
12839;DHT22;6486;51.034;5.262;2023-02-07T05:51:31;1.60;76.50
12839;DHT22;6486;51.034;5.262;2023-02-07T05:53:56;1.60;76.60
12839;DHT22;6486;51.034;5.262;2023-02-07T05:56:22;1.60;76.60
12839;DHT22;6486;51.034;5.262;2023-02-07T05:58:48;1.60;76.60
12839;DHT22;6486;51.034;5.262;2023-02-07T06:01:13;1.60;76.50
12839;DHT22;6486;51.034;5.262;2023-02-07T06:03:39;1.60;76.50
12839;DHT22;6486;51.034;5.262;2023-02-07T06:06:05;1.60;76.40
12839;DHT22;6486;51.034;5.262;2023-02-07T06:08:31;1.60;76.30
12839;DHT22;6486;51.034;5.262;2023-02-07T06:10:56;1.60;76.30
12839;DHT22;6486;51.034;5.262;2023-02-07T06:13:22;1.60;76.30
12839;DHT22;6486;51.034;5.262;2023-02-07T06:15:47;1.60;76.30
12839;DHT22;6486;51.034;5.262;2023-02-07T06:18:13;1.50;76.20
12839;DHT22;6486;51.034;5.262;2023-02-07T06:20:39;1.50;76.80
12839;DHT22;6486;51.034;5.262;2023-02-07T06:23:04;1.50;76.20
12839;DHT22;6486;51.034;5.262;2023-02-07T06:25:30;1.40;76.30
12839;DHT22;6486;51.034;5.262;2023-02-07T06:27:56;1.40;76.30
12839;DHT22;6486;51.034;5.262;2023-02-07T06:30:21;1.40;76.50
12839;DHT22;6486;51.034;5.262;2023-02-07T06:32:47;1.40;76.40
12839;DHT22;6486;51.034;5.262;2023-02-07T06:35:13;1.40;76.40
12839;DHT22;6486;51.034;5.262;2023-02-07T06:37:39;1.40;76.20
12839;DHT22;6486;51.034;5.262;2023-02-07T06:40:04;1.40;76.10
12839;DHT22;6486;51.034;5.262;2023-02-07T06:42:30;1.40;76.10
12839;DHT22;6486;51.034;5.262;2023-02-07T06:44:56;1.40;76.10
12839;DHT22;6486;51.034;5.262;2023-02-07T06:47:21;1.30;76.10
12839;DHT22;6486;51.034;5.262;2023-02-07T06:49:47;1.30;76.10
12839;DHT22;6486;51.034;5.262;2023-02-07T06:52:13;1.30;76.20
12839;DHT22;6486;51.034;5.262;2023-02-07T06:54:39;1.30;76.20
12839;DHT22;6486;51.034;5.262;2023-02-07T06:57:04;1.30;76.10
12839;DHT22;6486;51.034;5.262;2023-02-07T06:59:30;1.30;76.10
12839;DHT22;6486;51.034;5.262;2023-02-07T07:01:56;1.20;76.00
12839;DHT22;6486;51.034;5.262;2023-02-07T07:04:22;1.20;76.00
12839;DHT22;6486;51.034;5.262;2023-02-07T07:06:47;1.20;76.10
12839;DHT22;6486;51.034;5.262;2023-02-07T07:09:13;1.20;76.10
12839;DHT22;6486;51.034;5.262;2023-02-07T07:11:38;1.20;76.10
12839;DHT22;6486;51.034;5.262;2023-02-07T07:14:08;1.20;76.10
12839;DHT22;6486;51.034;5.262;2023-02-07T07:16:34;1.20;76.10
12839;DHT22;6486;51.034;5.262;2023-02-07T07:19:00;1.20;76.10
12839;DHT22;6486;51.034;5.262;2023-02-07T07:21:25;1.20;76.00
12839;DHT22;6486;51.034;5.262;2023-02-07T07:23:52;1.20;76.60
12839;DHT22;6486;51.034;5.262;2023-02-07T07:26:18;1.20;76.00
12839;DHT22;6486;51.034;5.262;2023-02-07T07:28:44;1.20;76.10
12839;DHT22;6486;51.034;5.262;2023-02-07T07:31:09;1.20;76.10
12839;DHT22;6486;51.034;5.262;2023-02-07T07:33:35;1.20;76.10
12839;DHT22;6486;51.034;5.262;2023-02-07T07:36:01;1.20;76.10
12839;DHT22;6486;51.034;5.262;2023-02-07T07:38:27;1.30;76.10
12839;DHT22;6486;51.034;5.262;2023-02-07T07:40:53;1.20;76.00
12839;DHT22;6486;51.034;5.262;2023-02-07T07:43:19;1.30;76.00
12839;DHT22;6486;51.034;5.262;2023-02-07T07:45:50;1.30;75.90
12839;DHT22;6486;51.034;5.262;2023-02-07T07:48:15;1.30;75.90
12839;DHT22;6486;51.034;5.262;2023-02-07T07:50:41;1.40;75.90
12839;DHT22;6486;51.034;5.262;2023-02-07T07:53:07;1.40;75.90
12839;DHT22;6486;51.034;5.262;2023-02-07T07:55:32;1.40;75.90
12839;DHT22;6486;51.034;5.262;2023-02-07T07:57:58;1.40;75.90
12839;DHT22;6486;51.034;5.262;2023-02-07T08:00:23;1.40;75.90
12839;DHT22;6486;51.034;5.262;2023-02-07T08:02:49;1.50;76.00
12839;DHT22;6486;51.034;5.262;2023-02-07T08:05:15;1.50;76.00
12839;DHT22;6486;51.034;5.262;2023-02-07T08:07:40;1.60;76.10
12839;DHT22;6486;51.034;5.262;2023-02-07T08:10:06;1.60;76.60
12839;DHT22;6486;51.034;5.262;2023-02-07T08:12:32;1.70;76.00
12839;DHT22;6486;51.034;5.262;2023-02-07T08:14:58;1.70;75.90
12839;DHT22;6486;51.034;5.262;2023-02-07T08:17:23;1.80;76.00
12839;DHT22;6486;51.034;5.262;2023-02-07T08:19:49;1.80;75.90
12839;DHT22;6486;51.034;5.262;2023-02-07T08:22:14;1.90;76.00
12839;DHT22;6486;51.034;5.262;2023-02-07T08:24:40;1.90;75.90
12839;DHT22;6486;51.034;5.262;2023-02-07T08:27:06;2.00;75.90
12839;DHT22;6486;51.034;5.262;2023-02-07T08:29:32;2.00;75.70
12839;DHT22;6486;51.034;5.262;2023-02-07T08:31:58;2.10;75.70
12839;DHT22;6486;51.034;5.262;2023-02-07T08:34:24;2.10;75.70
12839;DHT22;6486;51.034;5.262;2023-02-07T08:36:51;2.10;75.60
12839;DHT22;6486;51.034;5.262;2023-02-07T08:39:17;2.10;75.60
12839;DHT22;6486;51.034;5.262;2023-02-07T08:41:43;2.20;75.70
12839;DHT22;6486;51.034;5.262;2023-02-07T08:44:08;2.30;75.90
12839;DHT22;6486;51.034;5.262;2023-02-07T08:46:34;2.30;75.80
12839;DHT22;6486;51.034;5.262;2023-02-07T08:49:00;2.30;75.80
12839;DHT22;6486;51.034;5.262;2023-02-07T08:51:25;2.40;76.00
12839;DHT22;6486;51.034;5.262;2023-02-07T08:53:52;2.40;76.10
12839;DHT22;6486;51.034;5.262;2023-02-07T08:56:17;2.50;76.30
12839;DHT22;6486;51.034;5.262;2023-02-07T08:58:43;2.60;76.40
12839;DHT22;6486;51.034;5.262;2023-02-07T09:01:10;2.70;76.40
12839;DHT22;6486;51.034;5.262;2023-02-07T09:03:39;2.80;76.50
12839;DHT22;6486;51.034;5.262;2023-02-07T09:06:05;2.90;76.40
12839;DHT22;6486;51.034;5.262;2023-02-07T09:08:31;3.00;76.50
12839;DHT22;6486;51.034;5.262;2023-02-07T09:10:56;3.10;76.50
12839;DHT22;6486;51.034;5.262;2023-02-07T09:13:22;3.20;76.50
12839;DHT22;6486;51.034;5.262;2023-02-07T09:15:55;3.30;76.40
12839;DHT22;6486;51.034;5.262;2023-02-07T09:18:21;3.30;76.30
12839;DHT22;6486;51.034;5.262;2023-02-07T09:20:47;3.40;76.30
12839;DHT22;6486;51.034;5.262;2023-02-07T09:23:12;3.60;76.40
12839;DHT22;6486;51.034;5.262;2023-02-07T09:25:46;3.70;76.30
12839;DHT22;6486;51.034;5.262;2023-02-07T09:28:13;3.80;76.30
12839;DHT22;6486;51.034;5.262;2023-02-07T09:30:43;3.80;76.10
12839;DHT22;6486;51.034;5.262;2023-02-07T09:33:09;3.90;76.20
12839;DHT22;6486;51.034;5.262;2023-02-07T09:35:40;4.10;76.20
12839;DHT22;6486;51.034;5.262;2023-02-07T09:38:07;4.10;76.00
12839;DHT22;6486;51.034;5.262;2023-02-07T09:40:34;4.20;76.00
12839;DHT22;6486;51.034;5.262;2023-02-07T09:43:12;4.30;76.00
12839;DHT22;6486;51.034;5.262;2023-02-07T09:45:44;4.40;75.80
12839;DHT22;6486;51.034;5.262;2023-02-07T09:48:23;4.50;75.70
12839;DHT22;6486;51.034;5.262;2023-02-07T09:50:52;4.50;75.60
12839;DHT22;6486;51.034;5.262;2023-02-07T09:53:23;4.60;75.60
12839;DHT22;6486;51.034;5.262;2023-02-07T09:55:57;4.60;75.50
12839;DHT22;6486;51.034;5.262;2023-02-07T09:58:41;4.70;75.60
12839;DHT22;6486;51.034;5.262;2023-02-07T10:01:13;4.80;75.50
12839;DHT22;6486;51.034;5.262;2023-02-07T10:04:11;4.80;75.50
12839;DHT22;6486;51.034;5.262;2023-02-07T10:06:40;4.80;75.20
12839;DHT22;6486;51.034;5.262;2023-02-07T10:09:14;4.90;75.30
12839;DHT22;6486;51.034;5.262;2023-02-07T10:12:03;5.00;75.30
12839;DHT22;6486;51.034;5.262;2023-02-07T10:14:48;5.00;75.20
12839;DHT22;6486;51.034;5.262;2023-02-07T10:17:29;5.10;75.20
12839;DHT22;6486;51.034;5.262;2023-02-07T10:25:17;5.30;74.90
12839;DHT22;6486;51.034;5.262;2023-02-07T10:30:29;5.50;74.80
12839;DHT22;6486;51.034;5.262;2023-02-07T10:33:01;5.50;74.60
12839;DHT22;6486;51.034;5.262;2023-02-07T10:35:34;5.60;74.40
12839;DHT22;6486;51.034;5.262;2023-02-07T10:38:08;5.60;74.20
12839;DHT22;6486;51.034;5.262;2023-02-07T10:40:43;5.70;74.20
12839;DHT22;6486;51.034;5.262;2023-02-07T10:45:45;5.80;73.80
12839;DHT22;6486;51.034;5.262;2023-02-07T10:48:16;5.80;73.60
12839;DHT22;6486;51.034;5.262;2023-02-07T10:50:41;5.80;73.60
12839;DHT22;6486;51.034;5.262;2023-02-07T10:53:07;5.90;73.60
12839;DHT22;6486;51.034;5.262;2023-02-07T10:55:40;5.90;73.40
12839;DHT22;6486;51.034;5.262;2023-02-07T10:58:15;6.00;73.20
12839;DHT22;6486;51.034;5.262;2023-02-07T11:00:46;6.00;73.50
12839;DHT22;6486;51.034;5.262;2023-02-07T11:03:18;6.10;73.20
12839;DHT22;6486;51.034;5.262;2023-02-07T11:05:55;6.10;73.20
12839;DHT22;6486;51.034;5.262;2023-02-07T11:10:49;6.30;73.20
12839;DHT22;6486;51.034;5.262;2023-02-07T11:13:21;6.40;73.20
12839;DHT22;6486;51.034;5.262;2023-02-07T11:15:58;6.40;73.00
12839;DHT22;6486;51.034;5.262;2023-02-07T11:20:53;6.70;72.90
12839;DHT22;6486;51.034;5.262;2023-02-07T11:23:21;6.80;72.50
12839;DHT22;6486;51.034;5.262;2023-02-07T11:25:47;6.80;72.00
12839;DHT22;6486;51.034;5.262;2023-02-07T11:28:23;6.80;71.80
12839;DHT22;6486;51.034;5.262;2023-02-07T11:30:53;6.90;71.80
12839;DHT22;6486;51.034;5.262;2023-02-07T11:33:25;6.90;71.60
12839;DHT22;6486;51.034;5.262;2023-02-07T11:36:19;6.90;71.30
12839;DHT22;6486;51.034;5.262;2023-02-07T11:38:49;7.00;71.20
12839;DHT22;6486;51.034;5.262;2023-02-07T11:41:24;7.00;71.10
12839;DHT22;6486;51.034;5.262;2023-02-07T11:44:00;7.10;70.90
12839;DHT22;6486;51.034;5.262;2023-02-07T11:46:38;7.10;70.70
12839;DHT22;6486;51.034;5.262;2023-02-07T11:49:20;7.10;70.70
12839;DHT22;6486;51.034;5.262;2023-02-07T11:51:52;7.20;70.60
12839;DHT22;6486;51.034;5.262;2023-02-07T11:54:19;7.20;70.50
12839;DHT22;6486;51.034;5.262;2023-02-07T11:56:50;7.20;70.20
12839;DHT22;6486;51.034;5.262;2023-02-07T11:59:22;7.20;70.10
12839;DHT22;6486;51.034;5.262;2023-02-07T12:02:31;7.20;70.10
12839;DHT22;6486;51.034;5.262;2023-02-07T12:04:38;7.20;69.80
12839;DHT22;6486;51.034;5.262;2023-02-07T12:07:12;7.20;69.70
12839;DHT22;6486;51.034;5.262;2023-02-07T12:09:43;7.30;69.70
12839;DHT22;6486;51.034;5.262;2023-02-07T12:14:57;7.30;69.40
12839;DHT22;6486;51.034;5.262;2023-02-07T12:17:32;7.40;69.20
12839;DHT22;6486;51.034;5.262;2023-02-07T12:20:22;7.40;68.80
12839;DHT22;6486;51.034;5.262;2023-02-07T12:25:37;7.50;68.70
12839;DHT22;6486;51.034;5.262;2023-02-07T12:28:14;7.50;68.50
12839;DHT22;6486;51.034;5.262;2023-02-07T12:30:45;7.50;69.00
12839;DHT22;6486;51.034;5.262;2023-02-07T12:33:20;7.60;68.20
12839;DHT22;6486;51.034;5.262;2023-02-07T12:35:59;7.60;68.10
12839;DHT22;6486;51.034;5.262;2023-02-07T12:38:49;7.70;68.00
12839;DHT22;6486;51.034;5.262;2023-02-07T12:41:25;7.70;67.60
12839;DHT22;6486;51.034;5.262;2023-02-07T12:46:46;7.80;67.40
12839;DHT22;6486;51.034;5.262;2023-02-07T12:55:11;7.90;66.40
12839;DHT22;6486;51.034;5.262;2023-02-07T13:01:03;7.90;65.60
12839;DHT22;6486;51.034;5.262;2023-02-07T13:09:04;8.10;65.80
12839;DHT22;6486;51.034;5.262;2023-02-07T13:11:45;8.20;65.60
12839;DHT22;6486;51.034;5.262;2023-02-07T13:21:57;8.30;64.20
12839;DHT22;6486;51.034;5.262;2023-02-07T13:24:26;8.30;63.80
12839;DHT22;6486;51.034;5.262;2023-02-07T13:27:00;8.20;63.70
12839;DHT22;6486;51.034;5.262;2023-02-07T13:29:30;8.20;63.80
12839;DHT22;6486;51.034;5.262;2023-02-07T13:32:00;8.30;63.80
12839;DHT22;6486;51.034;5.262;2023-02-07T13:34:30;8.30;63.90
12839;DHT22;6486;51.034;5.262;2023-02-07T13:36:57;8.30;63.70
12839;DHT22;6486;51.034;5.262;2023-02-07T13:40:05;8.30;63.70
12839;DHT22;6486;51.034;5.262;2023-02-07T13:45:38;8.40;63.60
12839;DHT22;6486;51.034;5.262;2023-02-07T13:48:15;8.40;63.60
12839;DHT22;6486;51.034;5.262;2023-02-07T13:51:21;8.40;63.40
12839;DHT22;6486;51.034;5.262;2023-02-07T13:56:59;8.40;63.30
12839;DHT22;6486;51.034;5.262;2023-02-07T14:00:17;8.40;63.20
12839;DHT22;6486;51.034;5.262;2023-02-07T14:02:47;8.50;63.40
12839;DHT22;6486;51.034;5.262;2023-02-07T14:05:43;8.60;63.30
12839;DHT22;6486;51.034;5.262;2023-02-07T14:14:44;8.60;62.00
12839;DHT22;6486;51.034;5.262;2023-02-07T14:17:54;8.50;61.90
12839;DHT22;6486;51.034;5.262;2023-02-07T14:20:03;8.50;61.70
12839;DHT22;6486;51.034;5.262;2023-02-07T14:27:36;8.60;62.20
12839;DHT22;6486;51.034;5.262;2023-02-07T14:32:38;8.90;61.90
12839;DHT22;6486;51.034;5.262;2023-02-07T14:37:53;9.40;60.90
12839;DHT22;6486;51.034;5.262;2023-02-07T14:40:24;9.40;60.30
12839;DHT22;6486;51.034;5.262;2023-02-07T14:45:45;9.30;59.40
12839;DHT22;6486;51.034;5.262;2023-02-07T14:51:22;9.00;59.30
12839;DHT22;6486;51.034;5.262;2023-02-07T14:56:41;8.80;59.70
12839;DHT22;6486;51.034;5.262;2023-02-07T14:59:15;8.80;59.50
12839;DHT22;6486;51.034;5.262;2023-02-07T15:01:41;9.00;60.00
12839;DHT22;6486;51.034;5.262;2023-02-07T15:04:08;9.60;60.40
12839;DHT22;6486;51.034;5.262;2023-02-07T15:06:42;10.60;58.80
12839;DHT22;6486;51.034;5.262;2023-02-07T15:09:26;11.70;58.70
12839;DHT22;6486;51.034;5.262;2023-02-07T15:11:53;12.60;56.50
12839;DHT22;6486;51.034;5.262;2023-02-07T15:14:34;12.70;55.30
12839;DHT22;6486;51.034;5.262;2023-02-07T15:17:01;12.30;54.70
12839;DHT22;6486;51.034;5.262;2023-02-07T15:19:34;11.80;55.00
12839;DHT22;6486;51.034;5.262;2023-02-07T15:22:02;11.20;55.30
12839;DHT22;6486;51.034;5.262;2023-02-07T15:27:03;10.30;55.70
12839;DHT22;6486;51.034;5.262;2023-02-07T15:29:34;9.80;56.80
12839;DHT22;6486;51.034;5.262;2023-02-07T15:32:20;9.50;57.10
12839;DHT22;6486;51.034;5.262;2023-02-07T15:34:46;9.10;57.30
12839;DHT22;6486;51.034;5.262;2023-02-07T15:37:14;8.80;57.70
12839;DHT22;6486;51.034;5.262;2023-02-07T15:39:40;8.60;58.10
12839;DHT22;6486;51.034;5.262;2023-02-07T15:42:06;8.30;58.30
12839;DHT22;6486;51.034;5.262;2023-02-07T15:44:46;8.10;58.50
12839;DHT22;6486;51.034;5.262;2023-02-07T15:47:33;7.90;58.80
12839;DHT22;6486;51.034;5.262;2023-02-07T15:50:20;7.80;59.10
12839;DHT22;6486;51.034;5.262;2023-02-07T15:52:50;7.60;59.20
12839;DHT22;6486;51.034;5.262;2023-02-07T15:55:33;7.50;59.40
12839;DHT22;6486;51.034;5.262;2023-02-07T15:58:00;7.40;59.60
12839;DHT22;6486;51.034;5.262;2023-02-07T16:00:34;7.30;59.80
12839;DHT22;6486;51.034;5.262;2023-02-07T16:03:12;7.20;59.90
12839;DHT22;6486;51.034;5.262;2023-02-07T16:05:41;7.10;60.10
12839;DHT22;6486;51.034;5.262;2023-02-07T16:08:49;7.00;60.40
12839;DHT22;6486;51.034;5.262;2023-02-07T16:13:51;6.80;60.70
12839;DHT22;6486;51.034;5.262;2023-02-07T16:16:20;6.80;60.90
12839;DHT22;6486;51.034;5.262;2023-02-07T16:18:47;6.70;60.90
12839;DHT22;6486;51.034;5.262;2023-02-07T16:21:21;6.60;61.00
12839;DHT22;6486;51.034;5.262;2023-02-07T16:23:52;6.60;61.10
12839;DHT22;6486;51.034;5.262;2023-02-07T16:26:24;6.50;61.30
12839;DHT22;6486;51.034;5.262;2023-02-07T16:28:50;6.50;61.40
12839;DHT22;6486;51.034;5.262;2023-02-07T16:31:15;6.50;61.50
12839;DHT22;6486;51.034;5.262;2023-02-07T16:33:41;6.40;61.60
12839;DHT22;6486;51.034;5.262;2023-02-07T16:36:15;6.30;61.60
12839;DHT22;6486;51.034;5.262;2023-02-07T16:38:41;6.30;61.80
12839;DHT22;6486;51.034;5.262;2023-02-07T16:41:22;6.30;61.90
12839;DHT22;6486;51.034;5.262;2023-02-07T16:43:48;6.20;61.90
12839;DHT22;6486;51.034;5.262;2023-02-07T16:46:14;6.10;61.90
12839;DHT22;6486;51.034;5.262;2023-02-07T16:48:40;6.10;62.00
12839;DHT22;6486;51.034;5.262;2023-02-07T16:51:05;6.10;62.00
12839;DHT22;6486;51.034;5.262;2023-02-07T16:53:31;6.00;62.00
12839;DHT22;6486;51.034;5.262;2023-02-07T16:55:57;6.00;62.00
12839;DHT22;6486;51.034;5.262;2023-02-07T16:58:26;5.90;61.90
12839;DHT22;6486;51.034;5.262;2023-02-07T17:00:52;5.90;61.90
12839;DHT22;6486;51.034;5.262;2023-02-07T17:03:19;5.80;61.90
12839;DHT22;6486;51.034;5.262;2023-02-07T17:05:45;5.80;62.00
12839;DHT22;6486;51.034;5.262;2023-02-07T17:08:19;5.70;62.10
12839;DHT22;6486;51.034;5.262;2023-02-07T17:10:51;5.60;62.20
12839;DHT22;6486;51.034;5.262;2023-02-07T17:13:18;5.50;62.30
12839;DHT22;6486;51.034;5.262;2023-02-07T17:15:44;5.50;62.40
12839;DHT22;6486;51.034;5.262;2023-02-07T17:18:11;5.40;62.40
12839;DHT22;6486;51.034;5.262;2023-02-07T17:20:37;5.40;62.60
12839;DHT22;6486;51.034;5.262;2023-02-07T17:23:03;5.30;62.60
12839;DHT22;6486;51.034;5.262;2023-02-07T17:25:30;5.30;62.70
12839;DHT22;6486;51.034;5.262;2023-02-07T17:27:56;5.20;62.70
12839;DHT22;6486;51.034;5.262;2023-02-07T17:30:26;5.10;62.80
12839;DHT22;6486;51.034;5.262;2023-02-07T17:32:52;5.10;63.00
12839;DHT22;6486;51.034;5.262;2023-02-07T17:35:18;5.00;63.00
12839;DHT22;6486;51.034;5.262;2023-02-07T17:37:45;5.00;63.00
12839;DHT22;6486;51.034;5.262;2023-02-07T17:42:59;4.90;63.10
12839;DHT22;6486;51.034;5.262;2023-02-07T17:45:26;4.80;63.10
12839;DHT22;6486;51.034;5.262;2023-02-07T17:47:52;4.80;63.30
12839;DHT22;6486;51.034;5.262;2023-02-07T17:50:27;4.70;63.30
12839;DHT22;6486;51.034;5.262;2023-02-07T17:52:54;4.70;64.10
12839;DHT22;6486;51.034;5.262;2023-02-07T17:55:20;4.70;63.60
12839;DHT22;6486;51.034;5.262;2023-02-07T17:57:46;4.70;63.70
12839;DHT22;6486;51.034;5.262;2023-02-07T18:00:24;4.60;63.60
12839;DHT22;6486;51.034;5.262;2023-02-07T18:02:50;4.60;63.60
12839;DHT22;6486;51.034;5.262;2023-02-07T18:05:17;4.50;63.60
12839;DHT22;6486;51.034;5.262;2023-02-07T18:07:46;4.50;63.70
12839;DHT22;6486;51.034;5.262;2023-02-07T18:10:17;4.40;63.70
12839;DHT22;6486;51.034;5.262;2023-02-07T18:12:43;4.40;63.80
12839;DHT22;6486;51.034;5.262;2023-02-07T18:15:09;4.40;64.00
12839;DHT22;6486;51.034;5.262;2023-02-07T18:17:36;4.30;64.00